createdAt,value
2018-12-16T00:00:41.046Z,-0.40
2018-12-16T00:03:15.584Z,-0.40
2018-12-16T00:05:49.891Z,-0.40
2018-12-16T00:08:24.943Z,-0.40
2018-12-16T00:10:59.447Z,-0.40
2018-12-16T00:13:33.586Z,-0.40
2018-12-16T00:16:07.675Z,-0.40
2018-12-16T00:18:41.694Z,-0.40
2018-12-16T00:21:16.225Z,-0.40
2018-12-16T00:23:50.097Z,-0.30
2018-12-16T00:26:28.335Z,-0.30
2018-12-16T00:29:02.294Z,-0.30
2018-12-16T00:31:36.380Z,-0.30
2018-12-16T00:34:10.335Z,-0.40
2018-12-16T00:36:44.580Z,-0.40
2018-12-16T00:39:18.666Z,-0.50
2018-12-16T00:41:52.874Z,-0.60
2018-12-16T00:44:26.788Z,-0.70
2018-12-16T00:47:00.966Z,-0.70
2018-12-16T00:49:35.074Z,-0.80
2018-12-16T00:52:10.009Z,-0.80
2018-12-16T00:54:44.206Z,-0.80
2018-12-16T00:57:18.207Z,-0.90
2018-12-16T00:59:52.207Z,-0.90
2018-12-16T01:02:32.273Z,-0.90
2018-12-16T01:05:06.265Z,-0.90
2018-12-16T01:07:40.505Z,-0.90
2018-12-16T01:10:14.666Z,-0.90
2018-12-16T01:12:48.829Z,-0.90
2018-12-16T01:15:22.986Z,-1.00
2018-12-16T01:17:57.467Z,-1.00
2018-12-16T01:20:31.489Z,-1.00
2018-12-16T01:23:05.691Z,-1.10
2018-12-16T01:25:39.673Z,-1.10
2018-12-16T01:28:13.923Z,-1.20
2018-12-16T01:30:47.974Z,-1.20
2018-12-16T01:33:22.473Z,-1.10
2018-12-16T01:35:56.570Z,-1.10
2018-12-16T01:38:30.876Z,-1.00
2018-12-16T01:41:05.362Z,-0.90
2018-12-16T01:43:40.026Z,-0.90
2018-12-16T01:46:13.982Z,-0.80
2018-12-16T01:48:48.254Z,-0.80
2018-12-16T01:51:22.330Z,-0.70
2018-12-16T01:53:56.524Z,-0.70
2018-12-16T01:56:30.518Z,-0.80
2018-12-16T01:59:04.844Z,-0.70
2018-12-16T02:01:40.962Z,-0.70
2018-12-16T02:04:15.053Z,-0.70
2018-12-16T02:06:49.205Z,-0.70
2018-12-16T02:09:23.537Z,-0.70
2018-12-16T02:11:57.459Z,-0.70
2018-12-16T02:14:31.962Z,-0.70
2018-12-16T02:17:06.190Z,-0.60
2018-12-16T02:19:40.612Z,-0.60
2018-12-16T02:22:15.211Z,-0.60
2018-12-16T02:24:49.346Z,-0.60
2018-12-16T02:27:23.387Z,-0.50
2018-12-16T02:29:58.802Z,-0.50
2018-12-16T02:32:32.846Z,-0.50
2018-12-16T02:35:07.318Z,-0.40
2018-12-16T02:37:41.432Z,-0.50
2018-12-16T02:40:15.771Z,-0.40
2018-12-16T02:42:49.831Z,-0.40
2018-12-16T02:45:24.102Z,-0.50
2018-12-16T02:47:58.154Z,-0.50
2018-12-16T02:50:32.226Z,-0.40
2018-12-16T02:53:07.246Z,-0.50
2018-12-16T02:55:41.479Z,-0.50
2018-12-16T02:58:15.789Z,-0.50
2018-12-16T03:00:50.111Z,-0.50
2018-12-16T03:03:24.780Z,-0.60
2018-12-16T03:05:59.431Z,-0.60
2018-12-16T03:08:33.788Z,-0.60
2018-12-16T03:11:08.172Z,-0.70
2018-12-16T03:13:42.220Z,-0.70
2018-12-16T03:16:16.536Z,-0.80
2018-12-16T03:18:50.937Z,-0.80
2018-12-16T03:21:25.380Z,-0.90
2018-12-16T03:23:59.462Z,-0.90
2018-12-16T03:26:36.017Z,-0.80
2018-12-16T03:29:09.818Z,-0.80
2018-12-16T03:31:44.301Z,-0.80
2018-12-16T03:34:18.368Z,-0.90
2018-12-16T03:36:52.570Z,-0.90
2018-12-16T03:39:26.874Z,-0.80
2018-12-16T03:42:01.162Z,-0.80
2018-12-16T03:44:35.257Z,-0.70
2018-12-16T03:47:10.124Z,-0.70
2018-12-16T03:49:44.148Z,-0.60
2018-12-16T03:52:18.535Z,-0.60
2018-12-16T03:54:52.648Z,-0.50
2018-12-16T03:57:27.067Z,-0.50
2018-12-16T04:00:01.117Z,-0.50
2018-12-16T04:02:35.195Z,-0.50
2018-12-16T04:05:09.381Z,-0.50
2018-12-16T04:07:43.696Z,-0.50
2018-12-16T04:10:17.710Z,-0.40
2018-12-16T04:12:51.883Z,-0.40
2018-12-16T04:15:25.850Z,-0.40
2018-12-16T04:18:00.205Z,-0.30
2018-12-16T04:20:34.411Z,-0.40
2018-12-16T04:23:08.924Z,-0.30
2018-12-16T04:25:42.974Z,-0.30
2018-12-16T04:28:17.152Z,-0.30
2018-12-16T04:30:52.110Z,-0.30
2018-12-16T04:33:26.407Z,-0.30
2018-12-16T04:36:01.187Z,-0.30
2018-12-16T04:38:35.555Z,-0.30
2018-12-16T04:41:09.579Z,-0.30
2018-12-16T04:43:43.887Z,-0.30
2018-12-16T04:46:17.964Z,-0.30
2018-12-16T04:48:52.317Z,-0.30
2018-12-16T04:51:26.220Z,-0.20
2018-12-16T04:54:00.558Z,-0.10
2018-12-16T04:56:34.583Z,-0.10
2018-12-16T04:59:08.783Z,0.00
2018-12-16T05:01:42.845Z,0.00
2018-12-16T05:04:17.700Z,0.00
2018-12-16T05:06:51.591Z,0.00
2018-12-16T05:09:25.654Z,0.10
2018-12-16T05:11:59.683Z,0.10
2018-12-16T05:14:33.863Z,0.20
2018-12-16T05:17:07.903Z,0.20
2018-12-16T05:19:42.416Z,0.20
2018-12-16T05:22:16.483Z,0.20
2018-12-16T05:24:50.730Z,0.20
2018-12-16T05:27:24.706Z,0.20
2018-12-16T05:29:58.854Z,0.20
2018-12-16T05:32:32.968Z,0.10
2018-12-16T05:35:07.493Z,0.10
2018-12-16T05:37:41.629Z,0.20
2018-12-16T05:40:15.626Z,0.10
2018-12-16T05:42:49.711Z,0.20
2018-12-16T05:45:23.715Z,0.20
2018-12-16T05:47:58.037Z,0.20
2018-12-16T05:50:32.159Z,0.20
2018-12-16T05:53:06.311Z,0.20
2018-12-16T05:55:41.115Z,0.20
2018-12-16T05:58:15.811Z,0.20
2018-12-16T06:00:49.955Z,0.20
2018-12-16T06:03:23.895Z,0.20
2018-12-16T06:05:58.086Z,0.20
2018-12-16T06:08:32.098Z,0.20
2018-12-16T06:11:06.417Z,0.20
2018-12-16T06:13:40.454Z,0.20
2018-12-16T06:16:14.586Z,0.10
2018-12-16T06:18:48.556Z,0.10
2018-12-16T06:21:22.796Z,0.00
2018-12-16T06:23:56.822Z,0.10
2018-12-16T06:26:31.035Z,0.10
2018-12-16T06:29:05.011Z,0.00
2018-12-16T06:31:39.327Z,0.00
2018-12-16T06:34:14.342Z,0.00
2018-12-16T06:36:48.579Z,0.00
2018-12-16T06:39:22.798Z,0.00
2018-12-16T06:41:56.878Z,0.00
2018-12-16T06:44:30.851Z,0.00
2018-12-16T06:47:05.048Z,0.00
2018-12-16T06:49:39.860Z,0.00
2018-12-16T06:52:14.098Z,0.00
2018-12-16T06:54:48.051Z,0.00
2018-12-16T06:57:22.430Z,0.00
2018-12-16T06:59:56.442Z,0.00
2018-12-16T07:02:30.938Z,0.00
2018-12-16T07:05:05.005Z,0.00
2018-12-16T07:07:39.280Z,0.00
2018-12-16T07:10:13.275Z,0.00
2018-12-16T07:12:47.532Z,0.00
2018-12-16T07:15:21.642Z,0.00
2018-12-16T07:17:56.039Z,0.00
2018-12-16T07:20:30.065Z,0.00
2018-12-16T07:23:04.420Z,0.10
2018-12-16T07:25:38.278Z,0.00
2018-12-16T07:28:12.600Z,0.00
2018-12-16T07:30:46.447Z,0.10
2018-12-16T07:33:20.891Z,0.10
2018-12-16T07:35:54.978Z,0.00
2018-12-16T07:38:29.165Z,0.00
2018-12-16T07:41:03.353Z,0.00
2018-12-16T07:43:37.787Z,0.00
2018-12-16T07:46:11.684Z,0.00
2018-12-16T07:48:46.024Z,0.10
2018-12-16T07:51:19.982Z,0.00
2018-12-16T07:53:54.222Z,0.10
2018-12-16T07:56:28.156Z,0.10
2018-12-16T07:59:02.513Z,0.10
2018-12-16T08:01:36.700Z,0.00
2018-12-16T08:04:10.931Z,0.10
2018-12-16T08:06:45.052Z,0.10
2018-12-16T08:09:19.349Z,0.10
2018-12-16T08:11:53.906Z,0.10
2018-12-16T08:14:28.190Z,0.20
2018-12-16T08:17:02.446Z,0.20
2018-12-16T08:19:36.756Z,0.20
2018-12-16T08:22:11.126Z,0.20
2018-12-16T08:24:45.472Z,0.20
2018-12-16T08:27:19.583Z,0.30
2018-12-16T08:29:53.687Z,0.30
2018-12-16T08:32:27.911Z,0.30
2018-12-16T08:35:02.962Z,0.30
2018-12-16T08:37:37.068Z,0.30
2018-12-16T08:40:11.493Z,0.40
2018-12-16T08:42:46.210Z,0.40
2018-12-16T08:45:20.334Z,0.40
2018-12-16T08:47:54.329Z,0.50
2018-12-16T08:50:29.166Z,0.50
2018-12-16T08:53:03.265Z,0.40
2018-12-16T08:55:37.394Z,0.50
2018-12-16T08:58:11.267Z,0.50
2018-12-16T09:00:45.509Z,0.50
2018-12-16T09:03:19.570Z,0.60
2018-12-16T09:05:53.839Z,0.60
2018-12-16T09:08:28.506Z,0.70
2018-12-16T09:11:02.682Z,0.60
2018-12-16T09:13:36.898Z,0.70
2018-12-16T09:16:11.213Z,0.70
2018-12-16T09:18:45.127Z,0.70
2018-12-16T09:21:19.283Z,0.80
2018-12-16T09:23:53.291Z,0.70
2018-12-16T09:26:27.472Z,0.70
2018-12-16T09:29:01.604Z,0.70
2018-12-16T09:31:36.442Z,0.80
2018-12-16T09:34:10.370Z,0.80
2018-12-16T09:36:44.379Z,0.80
2018-12-16T09:39:18.356Z,0.80
2018-12-16T09:41:52.495Z,0.80
2018-12-16T09:44:26.445Z,0.80
2018-12-16T09:47:00.588Z,0.80
2018-12-16T09:49:34.626Z,0.80
2018-12-16T09:52:09.017Z,0.80
2018-12-16T09:54:44.412Z,0.80
2018-12-16T09:57:19.073Z,0.80
2018-12-16T09:59:53.066Z,0.80
2018-12-16T10:02:27.335Z,0.80
2018-12-16T10:05:01.375Z,0.80
2018-12-16T10:07:35.605Z,0.80
2018-12-16T10:10:09.736Z,0.70
2018-12-16T10:12:44.782Z,0.70
2018-12-16T10:15:19.122Z,0.60
2018-12-16T10:17:53.959Z,0.70
2018-12-16T10:20:27.874Z,0.60
2018-12-16T10:23:01.907Z,0.60
2018-12-16T10:25:35.790Z,0.60
2018-12-16T10:28:09.838Z,0.60
2018-12-16T10:30:44.491Z,0.60
2018-12-16T10:33:18.838Z,0.60
2018-12-16T10:35:52.805Z,0.60
2018-12-16T10:38:26.782Z,0.60
2018-12-16T10:41:00.923Z,0.60
2018-12-16T10:43:35.034Z,0.60
2018-12-16T10:46:09.158Z,0.70
2018-12-16T10:48:43.299Z,0.70
2018-12-16T10:51:17.985Z,0.70
2018-12-16T10:53:52.360Z,0.70
2018-12-16T10:56:26.499Z,0.70
2018-12-16T10:59:00.690Z,0.70
2018-12-16T11:01:34.650Z,0.70
2018-12-16T11:04:08.712Z,0.70
2018-12-16T11:06:44.036Z,0.80
2018-12-16T11:09:18.271Z,0.90
2018-12-16T11:11:52.294Z,0.90
2018-12-16T11:14:26.508Z,1.00
2018-12-16T11:17:00.541Z,1.10
2018-12-16T11:19:35.034Z,1.20
2018-12-16T11:22:09.444Z,1.10
2018-12-16T11:24:43.710Z,1.10
2018-12-16T11:27:17.926Z,1.10
2018-12-16T11:29:52.067Z,1.20
2018-12-16T11:32:26.059Z,1.20
2018-12-16T11:35:00.227Z,1.20
2018-12-16T11:37:34.319Z,1.20
2018-12-16T11:40:08.318Z,1.10
2018-12-16T11:42:42.325Z,1.10
2018-12-16T11:45:16.289Z,1.10
2018-12-16T11:47:50.302Z,1.10
2018-12-16T11:50:24.522Z,1.10
2018-12-16T11:52:58.326Z,1.10
2018-12-16T11:55:32.571Z,1.20
2018-12-16T11:58:06.496Z,1.20
2018-12-16T12:00:40.629Z,1.30
2018-12-16T12:03:14.474Z,1.50
2018-12-16T12:05:48.472Z,1.50
2018-12-16T12:08:22.294Z,1.40
2018-12-16T12:10:56.557Z,1.40
2018-12-16T12:13:30.507Z,1.40
2018-12-16T12:16:04.822Z,1.30
2018-12-16T12:18:38.823Z,1.40
2018-12-16T12:21:13.056Z,1.40
2018-12-16T12:23:47.214Z,1.40
2018-12-16T12:26:21.375Z,1.40
2018-12-16T12:28:55.255Z,1.30
2018-12-16T12:31:30.136Z,1.30
2018-12-16T12:34:04.142Z,1.30
2018-12-16T12:36:38.247Z,1.20
2018-12-16T12:39:12.390Z,1.20
2018-12-16T12:41:46.467Z,1.20
2018-12-16T12:44:20.607Z,1.10
2018-12-16T12:46:54.904Z,1.20
2018-12-16T12:49:28.927Z,1.10
2018-12-16T12:52:02.958Z,1.20
2018-12-16T12:54:36.837Z,1.20
2018-12-16T12:57:11.156Z,1.20
2018-12-16T12:59:45.010Z,1.20
2018-12-16T13:02:19.199Z,1.20
2018-12-16T13:04:53.126Z,1.20
2018-12-16T13:07:27.147Z,1.20
2018-12-16T13:10:01.179Z,1.30
2018-12-16T13:12:35.237Z,1.30
2018-12-16T13:15:09.557Z,1.30
2018-12-16T13:17:43.709Z,1.30
2018-12-16T13:20:17.670Z,1.30
2018-12-16T13:22:51.851Z,1.20
2018-12-16T13:28:31.756Z,1.30
2018-12-16T13:31:05.869Z,1.30
2018-12-16T13:33:39.754Z,1.20
2018-12-16T13:36:13.899Z,1.20
2018-12-16T13:38:48.072Z,1.30
2018-12-16T13:41:22.339Z,1.30
2018-12-16T13:43:56.378Z,1.30
2018-12-16T13:46:30.656Z,1.30
2018-12-16T13:49:04.583Z,1.30
2018-12-16T13:51:39.290Z,1.20
2018-12-16T13:54:13.396Z,1.20
2018-12-16T13:56:48.646Z,1.10
2018-12-16T13:59:22.542Z,1.10
2018-12-16T14:01:56.718Z,1.10
2018-12-16T14:04:30.986Z,1.10
2018-12-16T14:07:05.280Z,1.10
2018-12-16T14:09:39.467Z,1.20
2018-12-16T14:12:13.789Z,1.20
2018-12-16T14:14:47.790Z,1.20
2018-12-16T14:17:21.952Z,1.20
2018-12-16T14:19:55.833Z,1.10
2018-12-16T14:22:30.194Z,1.10
2018-12-16T14:25:04.602Z,1.10
2018-12-16T14:27:38.843Z,1.10
2018-12-16T14:30:12.934Z,1.10
2018-12-16T14:32:47.166Z,1.10
2018-12-16T14:35:21.260Z,1.10
2018-12-16T14:37:55.799Z,1.10
2018-12-16T14:40:29.997Z,1.00
2018-12-16T14:43:04.159Z,1.00
2018-12-16T14:45:38.030Z,0.90
2018-12-16T14:48:12.242Z,0.90
2018-12-16T14:50:46.206Z,0.80
2018-12-16T14:53:20.393Z,0.90
2018-12-16T14:55:55.281Z,0.80
2018-12-16T14:58:29.637Z,0.80
2018-12-16T15:01:03.726Z,0.80
2018-12-16T15:03:37.881Z,0.80
2018-12-16T15:06:11.848Z,0.70
2018-12-16T15:08:46.196Z,0.70
2018-12-16T15:11:20.209Z,0.70
2018-12-16T15:13:54.319Z,0.70
2018-12-16T15:16:28.312Z,0.70
2018-12-16T15:19:02.541Z,0.60
2018-12-16T15:21:36.625Z,0.60
2018-12-16T15:24:11.126Z,0.60
2018-12-16T15:26:45.087Z,0.60
2018-12-16T15:29:19.306Z,0.60
2018-12-16T15:31:53.173Z,0.60
2018-12-16T15:34:27.394Z,0.60
2018-12-16T15:37:01.529Z,0.60
2018-12-16T15:39:35.610Z,0.60
2018-12-16T15:42:09.485Z,0.60
2018-12-16T15:44:43.554Z,0.60
2018-12-16T15:47:17.575Z,0.60
2018-12-16T15:49:51.706Z,0.60
2018-12-16T15:52:25.612Z,0.60
2018-12-16T15:54:59.726Z,0.70
2018-12-16T15:57:33.708Z,0.70
2018-12-16T16:00:08.465Z,0.70
2018-12-16T16:02:42.580Z,0.70
2018-12-16T16:05:16.910Z,0.80
2018-12-16T16:07:50.962Z,0.70
2018-12-16T16:10:25.007Z,0.80
2018-12-16T16:12:59.144Z,0.80
2018-12-16T16:15:32.973Z,0.80
2018-12-16T16:18:06.947Z,0.80
2018-12-16T16:20:40.807Z,0.80
2018-12-16T16:23:14.867Z,0.80
2018-12-16T16:25:48.922Z,0.70
2018-12-16T16:28:22.988Z,0.80
2018-12-16T16:30:57.172Z,0.80
2018-12-16T16:33:31.331Z,0.80
2018-12-16T16:36:05.190Z,0.80
2018-12-16T16:38:39.446Z,0.90
2018-12-16T16:41:13.568Z,0.80
2018-12-16T16:43:47.589Z,0.80
2018-12-16T16:46:21.526Z,0.80
2018-12-16T16:48:55.595Z,0.80
2018-12-16T16:51:29.636Z,0.80
2018-12-16T16:54:04.043Z,0.80
2018-12-16T16:56:37.974Z,0.80
2018-12-16T16:59:12.167Z,0.80
2018-12-16T17:01:46.191Z,0.90
2018-12-16T17:04:20.306Z,0.90
2018-12-16T17:06:54.405Z,0.90
2018-12-16T17:09:28.564Z,0.90
2018-12-16T17:12:02.598Z,0.90
2018-12-16T17:14:36.683Z,0.90
2018-12-16T17:17:10.567Z,0.90
2018-12-16T17:19:44.551Z,0.90
2018-12-16T17:22:18.942Z,0.90
2018-12-16T17:24:53.400Z,0.90
2018-12-16T17:27:27.416Z,0.90
2018-12-16T17:30:02.268Z,0.80
2018-12-16T17:32:36.576Z,0.80
2018-12-16T17:35:10.791Z,0.80
2018-12-16T17:37:46.449Z,0.70
2018-12-16T17:40:21.063Z,0.70
2018-12-16T17:42:55.042Z,0.70
2018-12-16T17:45:29.315Z,0.70
2018-12-16T17:48:03.298Z,0.70
2018-12-16T17:50:37.374Z,0.70
2018-12-16T17:53:11.479Z,0.70
2018-12-16T17:55:45.854Z,0.60
2018-12-16T17:58:19.977Z,0.50
2018-12-16T18:00:54.032Z,0.40
2018-12-16T18:03:27.994Z,0.40
2018-12-16T18:06:02.118Z,0.50
2018-12-16T18:08:35.976Z,0.40
2018-12-16T18:11:09.984Z,0.40
2018-12-16T18:13:44.052Z,0.30
2018-12-16T18:16:18.003Z,0.40
2018-12-16T18:18:52.033Z,0.30
2018-12-16T18:21:26.162Z,0.30
2018-12-16T18:24:00.081Z,0.40
2018-12-16T18:26:34.168Z,0.50
2018-12-16T18:29:08.139Z,0.40
2018-12-16T18:31:42.158Z,0.40
2018-12-16T18:34:16.049Z,0.40
2018-12-16T18:36:50.070Z,0.40
2018-12-16T18:39:23.960Z,0.40
2018-12-16T18:41:58.152Z,0.40
2018-12-16T18:44:32.134Z,0.40
2018-12-16T18:47:06.280Z,0.40
2018-12-16T18:49:40.519Z,0.40
2018-12-16T18:52:14.566Z,0.50
2018-12-16T18:54:48.683Z,0.60
2018-12-16T18:57:22.735Z,0.60
2018-12-16T18:59:56.788Z,0.70
2018-12-16T19:02:31.094Z,0.60
2018-12-16T19:05:05.631Z,0.60
2018-12-16T19:07:39.914Z,0.70
2018-12-16T19:10:13.855Z,0.70
2018-12-16T19:12:47.836Z,0.70
2018-12-16T19:15:22.158Z,0.60
2018-12-16T19:17:56.012Z,0.50
2018-12-16T19:20:30.169Z,0.40
2018-12-16T19:23:04.114Z,0.50
2018-12-16T19:25:38.197Z,0.60
2018-12-16T19:28:12.276Z,0.50
2018-12-16T19:30:46.305Z,0.50
2018-12-16T19:33:20.104Z,0.50
2018-12-16T19:35:54.136Z,0.50
2018-12-16T19:38:27.954Z,0.60
2018-12-16T19:41:01.981Z,0.70
2018-12-16T19:43:35.927Z,0.60
2018-12-16T19:46:09.911Z,0.60
2018-12-16T19:48:43.918Z,0.60
2018-12-16T19:51:17.944Z,0.60
2018-12-16T19:53:51.904Z,0.60
2018-12-16T19:56:26.261Z,0.60
2018-12-16T19:59:00.327Z,0.60
2018-12-16T20:01:34.787Z,0.60
2018-12-16T20:04:14.434Z,0.50
2018-12-16T20:06:48.843Z,0.60
2018-12-16T20:09:23.075Z,0.60
2018-12-16T20:11:57.174Z,0.50
2018-12-16T20:14:31.444Z,0.50
2018-12-16T20:17:05.882Z,0.50
2018-12-16T20:19:40.022Z,0.50
2018-12-16T20:22:14.713Z,0.60
2018-12-16T20:24:48.698Z,0.60
2018-12-16T20:27:22.797Z,0.60
2018-12-16T20:29:57.355Z,0.50
2018-12-16T20:32:31.437Z,0.50
2018-12-16T20:35:05.732Z,0.50
2018-12-16T20:37:40.370Z,0.60
2018-12-16T20:40:14.426Z,0.50
2018-12-16T20:42:49.132Z,0.40
2018-12-16T20:45:22.963Z,0.50
2018-12-16T20:47:57.083Z,0.50
2018-12-16T20:50:31.138Z,0.40
2018-12-16T20:53:05.215Z,0.40
2018-12-16T20:55:39.201Z,0.40
2018-12-16T20:58:13.356Z,0.40
2018-12-16T21:00:47.398Z,0.40
2018-12-16T21:03:21.733Z,0.40
2018-12-16T21:05:55.631Z,0.50
2018-12-16T21:08:30.041Z,0.50
2018-12-16T21:14:12.626Z,0.50
2018-12-16T21:16:52.365Z,0.40
2018-12-16T21:19:26.668Z,0.40
2018-12-16T21:22:00.654Z,0.40
2018-12-16T21:24:34.784Z,0.40
2018-12-16T21:27:08.778Z,0.40
2018-12-16T21:29:42.979Z,0.40
2018-12-16T21:32:17.134Z,0.40
2018-12-16T21:34:51.417Z,0.40
2018-12-16T21:37:25.446Z,0.40
2018-12-16T21:39:59.614Z,0.40
2018-12-16T21:42:33.519Z,0.40
2018-12-16T21:45:07.470Z,0.40
2018-12-16T21:47:41.655Z,0.40
2018-12-16T21:50:15.765Z,0.40
2018-12-16T21:52:49.689Z,0.40
2018-12-16T21:55:23.850Z,0.40
2018-12-16T21:57:57.922Z,0.40
2018-12-16T22:00:32.141Z,0.50
2018-12-16T22:03:07.015Z,0.40
2018-12-16T22:05:41.122Z,0.40
2018-12-16T22:08:14.985Z,0.50
2018-12-16T22:10:48.972Z,0.50
2018-12-16T22:13:23.034Z,0.50
2018-12-16T22:15:57.050Z,0.50
2018-12-16T22:18:30.867Z,0.50
2018-12-16T22:21:05.306Z,0.40
2018-12-16T22:23:39.471Z,0.40
2018-12-16T22:26:13.627Z,0.40
2018-12-16T22:28:47.743Z,0.50
2018-12-16T22:31:21.719Z,0.50
2018-12-16T22:33:55.927Z,0.50
2018-12-16T22:36:29.925Z,0.40
2018-12-16T22:39:06.681Z,0.50
2018-12-16T22:41:40.580Z,0.60
2018-12-16T22:44:14.799Z,0.60
2018-12-16T22:46:48.922Z,0.60
2018-12-16T22:49:23.064Z,0.70
2018-12-16T22:51:57.182Z,0.80
2018-12-16T22:54:31.396Z,0.80
2018-12-16T22:57:05.947Z,0.90
2018-12-16T22:59:40.515Z,0.80
2018-12-16T23:02:14.766Z,0.70
2018-12-16T23:04:49.084Z,0.70
2018-12-16T23:07:23.046Z,0.70
2018-12-16T23:09:57.225Z,0.70
2018-12-16T23:12:33.184Z,0.70
2018-12-16T23:15:07.279Z,0.70
2018-12-16T23:17:41.190Z,0.70
2018-12-16T23:20:19.800Z,0.60
2018-12-16T23:22:53.850Z,0.60
2018-12-16T23:25:27.932Z,0.60
2018-12-16T23:28:01.866Z,0.60
2018-12-16T23:30:35.954Z,0.50
2018-12-16T23:33:09.866Z,0.60
2018-12-16T23:35:43.984Z,0.70
2018-12-16T23:38:18.106Z,0.70
2018-12-16T23:40:52.406Z,0.70
2018-12-16T23:43:26.346Z,0.70
2018-12-16T23:46:00.860Z,0.60
2018-12-16T23:48:35.633Z,0.60
2018-12-16T23:51:09.828Z,0.60
2018-12-16T23:53:43.803Z,0.60
2018-12-16T23:56:18.220Z,0.70
2018-12-16T23:58:52.350Z,0.60
